sensor_id;sensor_type;location;lat;lon;timestamp;P1;P2;P0
70436;PMS5003;57877;39.750;-104.894;2023-04-15T00:01:57;4;4;
70436;PMS5003;57877;39.750;-104.894;2023-04-15T00:04:22;3;3;
70436;PMS5003;57877;39.750;-104.894;2023-04-15T00:06:51;5;5;
70436;PMS5003;57877;39.750;-104.894;2023-04-15T00:09:13;5;5;
70436;PMS5003;57877;39.750;-104.894;2023-04-15T00:11:38;3;3;
70436;PMS5003;57877;39.750;-104.894;2023-04-15T00:14:03;4;4;
70436;PMS5003;57877;39.750;-104.894;2023-04-15T00:16:28;4;3;
70436;PMS5003;57877;39.750;-104.894;2023-04-15T00:18:53;4;3;
70436;PMS5003;57877;39.750;-104.894;2023-04-15T00:21:18;5;5;
70436;PMS5003;57877;39.750;-104.894;2023-04-15T00:23:43;4;4;
70436;PMS5003;57877;39.750;-104.894;2023-04-15T00:26:08;5;5;
70436;PMS5003;57877;39.750;-104.894;2023-04-15T00:28:33;4;4;
70436;PMS5003;57877;39.750;-104.894;2023-04-15T00:30:58;2;2;
70436;PMS5003;57877;39.750;-104.894;2023-04-15T00:33:24;4;4;
70436;PMS5003;57877;39.750;-104.894;2023-04-15T00:35:49;3;3;
70436;PMS5003;57877;39.750;-104.894;2023-04-15T00:38:14;4;4;
70436;PMS5003;57877;39.750;-104.894;2023-04-15T00:40:39;2;2;
70436;PMS5003;57877;39.750;-104.894;2023-04-15T00:43:04;4;4;
70436;PMS5003;57877;39.750;-104.894;2023-04-15T00:45:29;3;3;
70436;PMS5003;57877;39.750;-104.894;2023-04-15T00:47:54;1;1;
70436;PMS5003;57877;39.750;-104.894;2023-04-15T00:50:20;5;5;
70436;PMS5003;57877;39.750;-104.894;2023-04-15T00:52:45;3;3;
70436;PMS5003;57877;39.750;-104.894;2023-04-15T00:55:10;4;4;
70436;PMS5003;57877;39.750;-104.894;2023-04-15T00:57:35;1;1;
70436;PMS5003;57877;39.750;-104.894;2023-04-15T01:00:00;3;3;
70436;PMS5003;57877;39.750;-104.894;2023-04-15T01:02:25;5;5;
70436;PMS5003;57877;39.750;-104.894;2023-04-15T01:04:50;5;4;
70436;PMS5003;57877;39.750;-104.894;2023-04-15T01:07:15;4;4;
70436;PMS5003;57877;39.750;-104.894;2023-04-15T01:09:41;4;4;
70436;PMS5003;57877;39.750;-104.894;2023-04-15T01:12:06;5;5;
70436;PMS5003;57877;39.750;-104.894;2023-04-15T01:14:31;4;4;
70436;PMS5003;57877;39.750;-104.894;2023-04-15T01:16:56;3;3;
70436;PMS5003;57877;39.750;-104.894;2023-04-15T01:19:21;3;3;
70436;PMS5003;57877;39.750;-104.894;2023-04-15T01:21:46;3;3;
70436;PMS5003;57877;39.750;-104.894;2023-04-15T01:24:11;3;3;
70436;PMS5003;57877;39.750;-104.894;2023-04-15T01:26:36;3;3;
70436;PMS5003;57877;39.750;-104.894;2023-04-15T01:29:01;2;2;
70436;PMS5003;57877;39.750;-104.894;2023-04-15T01:31:27;3;3;
70436;PMS5003;57877;39.750;-104.894;2023-04-15T01:33:53;1;1;
70436;PMS5003;57877;39.750;-104.894;2023-04-15T01:36:18;2;1;
70436;PMS5003;57877;39.750;-104.894;2023-04-15T01:38:43;3;3;
70436;PMS5003;57877;39.750;-104.894;2023-04-15T01:41:08;2;2;
70436;PMS5003;57877;39.750;-104.894;2023-04-15T01:43:33;3;3;
70436;PMS5003;57877;39.750;-104.894;2023-04-15T01:45:58;3;3;
70436;PMS5003;57877;39.750;-104.894;2023-04-15T01:48:23;2;2;
70436;PMS5003;57877;39.750;-104.894;2023-04-15T01:50:48;3;3;
70436;PMS5003;57877;39.750;-104.894;2023-04-15T01:53:13;2;2;
70436;PMS5003;57877;39.750;-104.894;2023-04-15T01:55:38;1;1;
70436;PMS5003;57877;39.750;-104.894;2023-04-15T01:58:03;3;2;
70436;PMS5003;57877;39.750;-104.894;2023-04-15T02:00:28;1;1;
70436;PMS5003;57877;39.750;-104.894;2023-04-15T02:02:54;1;1;
70436;PMS5003;57877;39.750;-104.894;2023-04-15T02:05:19;4;4;
70436;PMS5003;57877;39.750;-104.894;2023-04-15T02:07:44;2;2;
70436;PMS5003;57877;39.750;-104.894;2023-04-15T02:10:09;3;3;
70436;PMS5003;57877;39.750;-104.894;2023-04-15T02:12:34;5;4;
70436;PMS5003;57877;39.750;-104.894;2023-04-15T02:14:59;3;3;
70436;PMS5003;57877;39.750;-104.894;2023-04-15T02:17:24;3;2;
70436;PMS5003;57877;39.750;-104.894;2023-04-15T02:19:49;5;5;
70436;PMS5003;57877;39.750;-104.894;2023-04-15T02:22:14;3;3;
70436;PMS5003;57877;39.750;-104.894;2023-04-15T02:24:40;4;4;
70436;PMS5003;57877;39.750;-104.894;2023-04-15T02:27:04;4;4;
70436;PMS5003;57877;39.750;-104.894;2023-04-15T02:29:30;5;5;
70436;PMS5003;57877;39.750;-104.894;2023-04-15T02:31:55;3;3;
70436;PMS5003;57877;39.750;-104.894;2023-04-15T02:34:20;5;4;
70436;PMS5003;57877;39.750;-104.894;2023-04-15T02:36:45;6;6;
70436;PMS5003;57877;39.750;-104.894;2023-04-15T02:39:10;4;4;
70436;PMS5003;57877;39.750;-104.894;2023-04-15T02:41:35;5;4;
70436;PMS5003;57877;39.750;-104.894;2023-04-15T02:44:00;4;4;
70436;PMS5003;57877;39.750;-104.894;2023-04-15T02:46:25;5;5;
70436;PMS5003;57877;39.750;-104.894;2023-04-15T02:48:51;6;5;
70436;PMS5003;57877;39.750;-104.894;2023-04-15T02:51:16;6;6;
70436;PMS5003;57877;39.750;-104.894;2023-04-15T02:53:41;7;7;
70436;PMS5003;57877;39.750;-104.894;2023-04-15T02:56:06;5;5;
70436;PMS5003;57877;39.750;-104.894;2023-04-15T02:58:31;9;9;
70436;PMS5003;57877;39.750;-104.894;2023-04-15T03:00:56;7;6;
70436;PMS5003;57877;39.750;-104.894;2023-04-15T03:03:21;4;4;
70436;PMS5003;57877;39.750;-104.894;2023-04-15T03:05:47;3;3;
70436;PMS5003;57877;39.750;-104.894;2023-04-15T03:08:12;3;3;
70436;PMS5003;57877;39.750;-104.894;2023-04-15T03:10:37;5;5;
70436;PMS5003;57877;39.750;-104.894;2023-04-15T03:13:02;4;4;
70436;PMS5003;57877;39.750;-104.894;2023-04-15T03:15:27;1;0;
70436;PMS5003;57877;39.750;-104.894;2023-04-15T03:17:52;2;2;
70436;PMS5003;57877;39.750;-104.894;2023-04-15T03:20:17;1;1;
70436;PMS5003;57877;39.750;-104.894;2023-04-15T03:22:42;2;2;
70436;PMS5003;57877;39.750;-104.894;2023-04-15T03:25:08;3;3;
70436;PMS5003;57877;39.750;-104.894;2023-04-15T03:27:33;1;1;
70436;PMS5003;57877;39.750;-104.894;2023-04-15T03:29:58;1;1;
70436;PMS5003;57877;39.750;-104.894;2023-04-15T03:32:23;18;17;
70436;PMS5003;57877;39.750;-104.894;2023-04-15T03:34:48;17;17;
70436;PMS5003;57877;39.750;-104.894;2023-04-15T03:37:13;2;2;
70436;PMS5003;57877;39.750;-104.894;2023-04-15T03:39:38;1;1;
70436;PMS5003;57877;39.750;-104.894;2023-04-15T03:42:03;3;3;
70436;PMS5003;57877;39.750;-104.894;2023-04-15T03:44:28;2;2;
70436;PMS5003;57877;39.750;-104.894;2023-04-15T03:46:53;2;2;
70436;PMS5003;57877;39.750;-104.894;2023-04-15T03:49:19;4;3;
70436;PMS5003;57877;39.750;-104.894;2023-04-15T03:51:44;4;3;
70436;PMS5003;57877;39.750;-104.894;2023-04-15T03:54:09;3;2;
70436;PMS5003;57877;39.750;-104.894;2023-04-15T03:56:34;2;2;
70436;PMS5003;57877;39.750;-104.894;2023-04-15T03:58:59;1;1;
70436;PMS5003;57877;39.750;-104.894;2023-04-15T04:01:24;4;3;
70436;PMS5003;57877;39.750;-104.894;2023-04-15T04:03:49;2;2;
70436;PMS5003;57877;39.750;-104.894;2023-04-15T04:06:15;2;2;
70436;PMS5003;57877;39.750;-104.894;2023-04-15T04:08:40;2;2;
70436;PMS5003;57877;39.750;-104.894;2023-04-15T04:11:05;4;4;
70436;PMS5003;57877;39.750;-104.894;2023-04-15T04:13:30;2;2;
70436;PMS5003;57877;39.750;-104.894;2023-04-15T04:15:55;4;4;
70436;PMS5003;57877;39.750;-104.894;2023-04-15T04:18:20;3;3;
70436;PMS5003;57877;39.750;-104.894;2023-04-15T04:20:45;4;4;
70436;PMS5003;57877;39.750;-104.894;2023-04-15T04:23:11;4;4;
70436;PMS5003;57877;39.750;-104.894;2023-04-15T04:25:36;3;3;
70436;PMS5003;57877;39.750;-104.894;2023-04-15T04:28:01;4;3;
70436;PMS5003;57877;39.750;-104.894;2023-04-15T04:30:26;3;3;
70436;PMS5003;57877;39.750;-104.894;2023-04-15T04:32:51;5;5;
70436;PMS5003;57877;39.750;-104.894;2023-04-15T04:35:16;5;5;
70436;PMS5003;57877;39.750;-104.894;2023-04-15T04:37:41;6;6;
70436;PMS5003;57877;39.750;-104.894;2023-04-15T04:40:07;5;5;
70436;PMS5003;57877;39.750;-104.894;2023-04-15T04:44:57;4;4;
70436;PMS5003;57877;39.750;-104.894;2023-04-15T04:47:22;5;5;
70436;PMS5003;57877;39.750;-104.894;2023-04-15T04:49:47;1;1;
70436;PMS5003;57877;39.750;-104.894;2023-04-15T04:52:12;2;1;
70436;PMS5003;57877;39.750;-104.894;2023-04-15T04:54:37;1;1;
70436;PMS5003;57877;39.750;-104.894;2023-04-15T04:57:02;2;2;
70436;PMS5003;57877;39.750;-104.894;2023-04-15T04:59:27;1;1;
70436;PMS5003;57877;39.750;-104.894;2023-04-15T05:01:53;0;0;
70436;PMS5003;57877;39.750;-104.894;2023-04-15T05:04:18;0;0;
70436;PMS5003;57877;39.750;-104.894;2023-04-15T05:06:43;0;0;
70436;PMS5003;57877;39.750;-104.894;2023-04-15T05:09:08;0;0;
70436;PMS5003;57877;39.750;-104.894;2023-04-15T05:11:33;0;0;
70436;PMS5003;57877;39.750;-104.894;2023-04-15T05:13:58;0;0;
70436;PMS5003;57877;39.750;-104.894;2023-04-15T05:16:23;0;0;
70436;PMS5003;57877;39.750;-104.894;2023-04-15T05:18:48;0;0;
70436;PMS5003;57877;39.750;-104.894;2023-04-15T05:21:14;0;0;
70436;PMS5003;57877;39.750;-104.894;2023-04-15T05:23:39;0;0;
70436;PMS5003;57877;39.750;-104.894;2023-04-15T05:26:04;1;1;
70436;PMS5003;57877;39.750;-104.894;2023-04-15T05:28:29;0;0;
70436;PMS5003;57877;39.750;-104.894;2023-04-15T05:30:54;0;0;
70436;PMS5003;57877;39.750;-104.894;2023-04-15T05:33:20;0;0;
70436;PMS5003;57877;39.750;-104.894;2023-04-15T05:35:44;0;0;
70436;PMS5003;57877;39.750;-104.894;2023-04-15T05:38:10;0;0;
70436;PMS5003;57877;39.750;-104.894;2023-04-15T05:40:35;0;0;
70436;PMS5003;57877;39.750;-104.894;2023-04-15T05:43:00;0;0;
70436;PMS5003;57877;39.750;-104.894;2023-04-15T05:45:25;0;0;
70436;PMS5003;57877;39.750;-104.894;2023-04-15T05:47:50;0;0;
70436;PMS5003;57877;39.750;-104.894;2023-04-15T05:50:15;0;0;
70436;PMS5003;57877;39.750;-104.894;2023-04-15T05:52:40;0;0;
70436;PMS5003;57877;39.750;-104.894;2023-04-15T05:55:06;0;0;
70436;PMS5003;57877;39.750;-104.894;2023-04-15T05:57:31;0;0;
70436;PMS5003;57877;39.750;-104.894;2023-04-15T05:59:56;0;0;
70436;PMS5003;57877;39.750;-104.894;2023-04-15T06:02:21;0;0;
70436;PMS5003;57877;39.750;-104.894;2023-04-15T06:04:46;0;0;
70436;PMS5003;57877;39.750;-104.894;2023-04-15T06:07:11;0;0;
70436;PMS5003;57877;39.750;-104.894;2023-04-15T06:09:36;0;0;
70436;PMS5003;57877;39.750;-104.894;2023-04-15T06:12:01;0;0;
70436;PMS5003;57877;39.750;-104.894;2023-04-15T06:14:27;0;0;
70436;PMS5003;57877;39.750;-104.894;2023-04-15T06:16:52;0;0;
70436;PMS5003;57877;39.750;-104.894;2023-04-15T06:19:17;0;0;
70436;PMS5003;57877;39.750;-104.894;2023-04-15T06:21:42;0;0;
70436;PMS5003;57877;39.750;-104.894;2023-04-15T06:24:07;0;0;
70436;PMS5003;57877;39.750;-104.894;2023-04-15T06:26:32;0;0;
70436;PMS5003;57877;39.750;-104.894;2023-04-15T06:28:58;0;0;
70436;PMS5003;57877;39.750;-104.894;2023-04-15T06:31:23;0;0;
70436;PMS5003;57877;39.750;-104.894;2023-04-15T06:33:48;0;0;
70436;PMS5003;57877;39.750;-104.894;2023-04-15T06:36:13;0;0;
70436;PMS5003;57877;39.750;-104.894;2023-04-15T06:38:38;1;1;
70436;PMS5003;57877;39.750;-104.894;2023-04-15T06:41:03;1;1;
70436;PMS5003;57877;39.750;-104.894;2023-04-15T06:43:28;1;1;
70436;PMS5003;57877;39.750;-104.894;2023-04-15T06:45:53;3;3;
70436;PMS5003;57877;39.750;-104.894;2023-04-15T06:48:19;1;1;
70436;PMS5003;57877;39.750;-104.894;2023-04-15T06:50:44;0;0;
70436;PMS5003;57877;39.750;-104.894;2023-04-15T06:53:09;0;0;
70436;PMS5003;57877;39.750;-104.894;2023-04-15T06:55:34;0;0;
70436;PMS5003;57877;39.750;-104.894;2023-04-15T06:57:59;0;0;
70436;PMS5003;57877;39.750;-104.894;2023-04-15T07:00:24;0;0;
70436;PMS5003;57877;39.750;-104.894;2023-04-15T07:02:50;1;0;
70436;PMS5003;57877;39.750;-104.894;2023-04-15T07:05:14;1;1;
70436;PMS5003;57877;39.750;-104.894;2023-04-15T07:07:40;1;0;
70436;PMS5003;57877;39.750;-104.894;2023-04-15T07:10:05;0;0;
70436;PMS5003;57877;39.750;-104.894;2023-04-15T07:12:30;1;1;
70436;PMS5003;57877;39.750;-104.894;2023-04-15T07:14:55;0;0;
70436;PMS5003;57877;39.750;-104.894;2023-04-15T07:17:20;1;1;
70436;PMS5003;57877;39.750;-104.894;2023-04-15T07:19:45;1;0;
70436;PMS5003;57877;39.750;-104.894;2023-04-15T07:22:10;1;1;
70436;PMS5003;57877;39.750;-104.894;2023-04-15T07:24:35;0;0;
70436;PMS5003;57877;39.750;-104.894;2023-04-15T07:27:00;1;1;
70436;PMS5003;57877;39.750;-104.894;2023-04-15T07:29:26;1;1;
70436;PMS5003;57877;39.750;-104.894;2023-04-15T07:31:51;3;3;
70436;PMS5003;57877;39.750;-104.894;2023-04-15T07:34:16;1;1;
70436;PMS5003;57877;39.750;-104.894;2023-04-15T07:36:41;3;2;
70436;PMS5003;57877;39.750;-104.894;2023-04-15T07:39:06;3;3;
70436;PMS5003;57877;39.750;-104.894;2023-04-15T07:41:31;2;2;
70436;PMS5003;57877;39.750;-104.894;2023-04-15T07:43:56;3;3;
70436;PMS5003;57877;39.750;-104.894;2023-04-15T07:46:21;3;3;
70436;PMS5003;57877;39.750;-104.894;2023-04-15T07:48:46;2;2;
70436;PMS5003;57877;39.750;-104.894;2023-04-15T07:51:11;2;2;
70436;PMS5003;57877;39.750;-104.894;2023-04-15T07:53:36;3;3;
70436;PMS5003;57877;39.750;-104.894;2023-04-15T07:56:01;2;1;
70436;PMS5003;57877;39.750;-104.894;2023-04-15T07:58:27;2;2;
70436;PMS5003;57877;39.750;-104.894;2023-04-15T08:00:52;3;2;
70436;PMS5003;57877;39.750;-104.894;2023-04-15T08:03:17;2;1;
70436;PMS5003;57877;39.750;-104.894;2023-04-15T08:05:42;4;4;
70436;PMS5003;57877;39.750;-104.894;2023-04-15T08:08:07;5;3;
70436;PMS5003;57877;39.750;-104.894;2023-04-15T08:10:32;2;2;
70436;PMS5003;57877;39.750;-104.894;2023-04-15T08:12:57;2;2;
70436;PMS5003;57877;39.750;-104.894;2023-04-15T08:15:22;4;4;
70436;PMS5003;57877;39.750;-104.894;2023-04-15T08:17:47;3;3;
70436;PMS5003;57877;39.750;-104.894;2023-04-15T08:20:12;6;6;
70436;PMS5003;57877;39.750;-104.894;2023-04-15T08:22:38;2;2;
70436;PMS5003;57877;39.750;-104.894;2023-04-15T08:25:03;4;4;
70436;PMS5003;57877;39.750;-104.894;2023-04-15T08:27:28;4;4;
70436;PMS5003;57877;39.750;-104.894;2023-04-15T08:29:53;1;0;
70436;PMS5003;57877;39.750;-104.894;2023-04-15T08:32:18;3;3;
70436;PMS5003;57877;39.750;-104.894;2023-04-15T08:34:43;3;2;
70436;PMS5003;57877;39.750;-104.894;2023-04-15T08:37:08;5;4;
70436;PMS5003;57877;39.750;-104.894;2023-04-15T08:39:33;3;3;
70436;PMS5003;57877;39.750;-104.894;2023-04-15T08:42:00;4;4;
70436;PMS5003;57877;39.750;-104.894;2023-04-15T08:44:24;3;3;
70436;PMS5003;57877;39.750;-104.894;2023-04-15T08:46:49;3;3;
70436;PMS5003;57877;39.750;-104.894;2023-04-15T08:49:14;3;3;
70436;PMS5003;57877;39.750;-104.894;2023-04-15T08:51:39;2;2;
70436;PMS5003;57877;39.750;-104.894;2023-04-15T08:54:04;3;3;
70436;PMS5003;57877;39.750;-104.894;2023-04-15T08:56:30;1;1;
70436;PMS5003;57877;39.750;-104.894;2023-04-15T08:58:54;4;4;
70436;PMS5003;57877;39.750;-104.894;2023-04-15T09:01:19;3;3;
70436;PMS5003;57877;39.750;-104.894;2023-04-15T09:03:45;4;3;
70436;PMS5003;57877;39.750;-104.894;2023-04-15T09:06:10;3;3;
70436;PMS5003;57877;39.750;-104.894;2023-04-15T09:08:35;5;4;
70436;PMS5003;57877;39.750;-104.894;2023-04-15T09:11:00;4;4;
70436;PMS5003;57877;39.750;-104.894;2023-04-15T09:13:25;4;4;
70436;PMS5003;57877;39.750;-104.894;2023-04-15T09:15:50;2;2;
70436;PMS5003;57877;39.750;-104.894;2023-04-15T09:20:40;4;4;
70436;PMS5003;57877;39.750;-104.894;2023-04-15T09:25:31;3;3;
70436;PMS5003;57877;39.750;-104.894;2023-04-15T09:27:58;3;3;
70436;PMS5003;57877;39.750;-104.894;2023-04-15T09:30:22;5;4;
70436;PMS5003;57877;39.750;-104.894;2023-04-15T09:32:48;5;5;
70436;PMS5003;57877;39.750;-104.894;2023-04-15T09:35:12;5;5;
70436;PMS5003;57877;39.750;-104.894;2023-04-15T09:37:37;5;5;
70436;PMS5003;57877;39.750;-104.894;2023-04-15T09:40:02;3;3;
70436;PMS5003;57877;39.750;-104.894;2023-04-15T09:42:27;4;4;
70436;PMS5003;57877;39.750;-104.894;2023-04-15T09:44:52;3;3;
70436;PMS5003;57877;39.750;-104.894;2023-04-15T09:49:45;5;5;
70436;PMS5003;57877;39.750;-104.894;2023-04-15T09:52:07;5;5;
70436;PMS5003;57877;39.750;-104.894;2023-04-15T09:54:33;6;6;
70436;PMS5003;57877;39.750;-104.894;2023-04-15T09:57:03;5;5;
70436;PMS5003;57877;39.750;-104.894;2023-04-15T09:59:22;8;7;
70436;PMS5003;57877;39.750;-104.894;2023-04-15T10:01:47;6;6;
70436;PMS5003;57877;39.750;-104.894;2023-04-15T10:04:12;7;7;
70436;PMS5003;57877;39.750;-104.894;2023-04-15T10:06:38;8;7;
70436;PMS5003;57877;39.750;-104.894;2023-04-15T10:09:03;9;8;
70436;PMS5003;57877;39.750;-104.894;2023-04-15T10:11:28;8;8;
70436;PMS5003;57877;39.750;-104.894;2023-04-15T10:13:53;9;8;
70436;PMS5003;57877;39.750;-104.894;2023-04-15T10:16:18;7;7;
70436;PMS5003;57877;39.750;-104.894;2023-04-15T10:18:44;7;7;
70436;PMS5003;57877;39.750;-104.894;2023-04-15T10:21:08;9;9;
70436;PMS5003;57877;39.750;-104.894;2023-04-15T10:23:33;10;10;
70436;PMS5003;57877;39.750;-104.894;2023-04-15T10:25:58;9;9;
70436;PMS5003;57877;39.750;-104.894;2023-04-15T10:28:23;9;9;
70436;PMS5003;57877;39.750;-104.894;2023-04-15T10:30:48;11;11;
70436;PMS5003;57877;39.750;-104.894;2023-04-15T10:33:13;10;10;
70436;PMS5003;57877;39.750;-104.894;2023-04-15T10:35:38;14;14;
70436;PMS5003;57877;39.750;-104.894;2023-04-15T10:40:29;11;10;
70436;PMS5003;57877;39.750;-104.894;2023-04-15T10:42:54;12;11;
70436;PMS5003;57877;39.750;-104.894;2023-04-15T10:45:18;14;13;
70436;PMS5003;57877;39.750;-104.894;2023-04-15T10:47:44;12;12;
70436;PMS5003;57877;39.750;-104.894;2023-04-15T10:50:08;15;14;
70436;PMS5003;57877;39.750;-104.894;2023-04-15T10:52:33;16;14;
70436;PMS5003;57877;39.750;-104.894;2023-04-15T10:55:02;17;15;
70436;PMS5003;57877;39.750;-104.894;2023-04-15T10:57:24;11;11;
70436;PMS5003;57877;39.750;-104.894;2023-04-15T11:02:14;14;14;
70436;PMS5003;57877;39.750;-104.894;2023-04-15T11:07:04;7;7;
70436;PMS5003;57877;39.750;-104.894;2023-04-15T11:09:30;10;10;
70436;PMS5003;57877;39.750;-104.894;2023-04-15T11:14:19;11;10;
70436;PMS5003;57877;39.750;-104.894;2023-04-15T11:16:44;14;12;
70436;PMS5003;57877;39.750;-104.894;2023-04-15T11:19:09;9;9;
70436;PMS5003;57877;39.750;-104.894;2023-04-15T11:21:34;9;9;
70436;PMS5003;57877;39.750;-104.894;2023-04-15T11:23:59;12;12;
70436;PMS5003;57877;39.750;-104.894;2023-04-15T11:26:25;8;8;
70436;PMS5003;57877;39.750;-104.894;2023-04-15T11:28:49;10;8;
70436;PMS5003;57877;39.750;-104.894;2023-04-15T11:31:15;6;5;
70436;PMS5003;57877;39.750;-104.894;2023-04-15T11:36:04;6;6;
70436;PMS5003;57877;39.750;-104.894;2023-04-15T11:38:29;3;2;
70436;PMS5003;57877;39.750;-104.894;2023-04-15T11:40:54;5;5;
70436;PMS5003;57877;39.750;-104.894;2023-04-15T11:43:20;4;4;
70436;PMS5003;57877;39.750;-104.894;2023-04-15T11:45:48;5;5;
70436;PMS5003;57877;39.750;-104.894;2023-04-15T11:48:10;6;6;
70436;PMS5003;57877;39.750;-104.894;2023-04-15T11:50:35;9;9;
70436;PMS5003;57877;39.750;-104.894;2023-04-15T11:53:00;9;9;
70436;PMS5003;57877;39.750;-104.894;2023-04-15T11:55:25;8;8;
70436;PMS5003;57877;39.750;-104.894;2023-04-15T11:57:52;7;6;
70436;PMS5003;57877;39.750;-104.894;2023-04-15T12:00:15;7;7;
70436;PMS5003;57877;39.750;-104.894;2023-04-15T12:02:40;9;7;
70436;PMS5003;57877;39.750;-104.894;2023-04-15T12:05:05;8;8;
70436;PMS5003;57877;39.750;-104.894;2023-04-15T12:07:30;8;7;
70436;PMS5003;57877;39.750;-104.894;2023-04-15T12:09:55;8;8;
70436;PMS5003;57877;39.750;-104.894;2023-04-15T12:12:20;8;8;
70436;PMS5003;57877;39.750;-104.894;2023-04-15T12:14:45;10;10;
70436;PMS5003;57877;39.750;-104.894;2023-04-15T12:17:10;8;8;
70436;PMS5003;57877;39.750;-104.894;2023-04-15T12:19:36;9;9;
70436;PMS5003;57877;39.750;-104.894;2023-04-15T12:22:01;7;7;
70436;PMS5003;57877;39.750;-104.894;2023-04-15T12:24:25;8;7;
70436;PMS5003;57877;39.750;-104.894;2023-04-15T12:26:51;9;8;
70436;PMS5003;57877;39.750;-104.894;2023-04-15T12:29:16;8;8;
70436;PMS5003;57877;39.750;-104.894;2023-04-15T12:34:06;9;9;
70436;PMS5003;57877;39.750;-104.894;2023-04-15T12:36:31;9;8;
70436;PMS5003;57877;39.750;-104.894;2023-04-15T12:38:57;9;9;
70436;PMS5003;57877;39.750;-104.894;2023-04-15T12:41:22;7;7;
70436;PMS5003;57877;39.750;-104.894;2023-04-15T12:43:47;7;7;
70436;PMS5003;57877;39.750;-104.894;2023-04-15T12:46:13;10;9;
70436;PMS5003;57877;39.750;-104.894;2023-04-15T12:48:38;7;7;
70436;PMS5003;57877;39.750;-104.894;2023-04-15T12:51:03;9;9;
70436;PMS5003;57877;39.750;-104.894;2023-04-15T12:53:28;12;11;
70436;PMS5003;57877;39.750;-104.894;2023-04-15T12:55:53;11;11;
70436;PMS5003;57877;39.750;-104.894;2023-04-15T12:58:18;11;10;
70436;PMS5003;57877;39.750;-104.894;2023-04-15T13:00:43;11;9;
70436;PMS5003;57877;39.750;-104.894;2023-04-15T13:03:08;9;9;
70436;PMS5003;57877;39.750;-104.894;2023-04-15T13:05:34;10;10;
70436;PMS5003;57877;39.750;-104.894;2023-04-15T13:07:58;8;8;
70436;PMS5003;57877;39.750;-104.894;2023-04-15T13:10:23;10;10;
70436;PMS5003;57877;39.750;-104.894;2023-04-15T13:12:48;14;13;
70436;PMS5003;57877;39.750;-104.894;2023-04-15T13:15:13;15;14;
70436;PMS5003;57877;39.750;-104.894;2023-04-15T13:17:38;13;13;
70436;PMS5003;57877;39.750;-104.894;2023-04-15T13:20:04;15;14;
70436;PMS5003;57877;39.750;-104.894;2023-04-15T13:22:29;13;13;
70436;PMS5003;57877;39.750;-104.894;2023-04-15T13:24:54;12;11;
70436;PMS5003;57877;39.750;-104.894;2023-04-15T13:27:19;8;8;
70436;PMS5003;57877;39.750;-104.894;2023-04-15T13:29:44;10;10;
70436;PMS5003;57877;39.750;-104.894;2023-04-15T13:32:09;13;11;
70436;PMS5003;57877;39.750;-104.894;2023-04-15T13:34:34;8;7;
70436;PMS5003;57877;39.750;-104.894;2023-04-15T13:39:24;8;6;
70436;PMS5003;57877;39.750;-104.894;2023-04-15T13:41:49;5;5;
70436;PMS5003;57877;39.750;-104.894;2023-04-15T13:44:14;7;6;
70436;PMS5003;57877;39.750;-104.894;2023-04-15T13:46:39;5;5;
70436;PMS5003;57877;39.750;-104.894;2023-04-15T13:49:04;7;7;
70436;PMS5003;57877;39.750;-104.894;2023-04-15T13:51:29;7;7;
70436;PMS5003;57877;39.750;-104.894;2023-04-15T13:53:54;6;6;
70436;PMS5003;57877;39.750;-104.894;2023-04-15T13:56:19;8;7;
70436;PMS5003;57877;39.750;-104.894;2023-04-15T13:58:44;8;7;
70436;PMS5003;57877;39.750;-104.894;2023-04-15T14:01:09;7;7;
70436;PMS5003;57877;39.750;-104.894;2023-04-15T14:03:34;9;9;
70436;PMS5003;57877;39.750;-104.894;2023-04-15T14:06:00;6;6;
70436;PMS5003;57877;39.750;-104.894;2023-04-15T14:08:25;8;8;
70436;PMS5003;57877;39.750;-104.894;2023-04-15T14:10:50;4;4;
70436;PMS5003;57877;39.750;-104.894;2023-04-15T14:13:15;6;4;
70436;PMS5003;57877;39.750;-104.894;2023-04-15T14:15:40;2;2;
70436;PMS5003;57877;39.750;-104.894;2023-04-15T14:18:06;5;4;
70436;PMS5003;57877;39.750;-104.894;2023-04-15T14:20:32;5;4;
70436;PMS5003;57877;39.750;-104.894;2023-04-15T14:22:57;4;4;
70436;PMS5003;57877;39.750;-104.894;2023-04-15T14:25:23;4;4;
70436;PMS5003;57877;39.750;-104.894;2023-04-15T14:27:48;3;3;
70436;PMS5003;57877;39.750;-104.894;2023-04-15T14:30:14;2;2;
70436;PMS5003;57877;39.750;-104.894;2023-04-15T14:32:40;1;1;
70436;PMS5003;57877;39.750;-104.894;2023-04-15T14:35:05;0;0;
70436;PMS5003;57877;39.750;-104.894;2023-04-15T14:37:31;0;0;
70436;PMS5003;57877;39.750;-104.894;2023-04-15T14:39:57;1;1;
70436;PMS5003;57877;39.750;-104.894;2023-04-15T14:42:24;2;2;
70436;PMS5003;57877;39.750;-104.894;2023-04-15T14:44:49;1;0;
70436;PMS5003;57877;39.750;-104.894;2023-04-15T14:47:14;1;0;
70436;PMS5003;57877;39.750;-104.894;2023-04-15T14:49:39;0;0;
70436;PMS5003;57877;39.750;-104.894;2023-04-15T14:52:04;1;1;
70436;PMS5003;57877;39.750;-104.894;2023-04-15T14:54:29;0;0;
70436;PMS5003;57877;39.750;-104.894;2023-04-15T14:56:54;0;0;
70436;PMS5003;57877;39.750;-104.894;2023-04-15T14:59:19;0;0;
70436;PMS5003;57877;39.750;-104.894;2023-04-15T15:01:44;0;0;
70436;PMS5003;57877;39.750;-104.894;2023-04-15T15:04:09;2;2;
70436;PMS5003;57877;39.750;-104.894;2023-04-15T15:06:34;1;1;
70436;PMS5003;57877;39.750;-104.894;2023-04-15T15:08:59;4;4;
70436;PMS5003;57877;39.750;-104.894;2023-04-15T15:11:24;4;4;
70436;PMS5003;57877;39.750;-104.894;2023-04-15T15:13:49;4;4;
70436;PMS5003;57877;39.750;-104.894;2023-04-15T15:16:15;4;4;
70436;PMS5003;57877;39.750;-104.894;2023-04-15T15:18:40;5;5;
70436;PMS5003;57877;39.750;-104.894;2023-04-15T15:21:05;2;1;
70436;PMS5003;57877;39.750;-104.894;2023-04-15T15:23:30;0;0;
70436;PMS5003;57877;39.750;-104.894;2023-04-15T15:25:55;1;0;
70436;PMS5003;57877;39.750;-104.894;2023-04-15T15:28:20;1;1;
70436;PMS5003;57877;39.750;-104.894;2023-04-15T15:30:45;5;5;
70436;PMS5003;57877;39.750;-104.894;2023-04-15T15:33:10;1;1;
70436;PMS5003;57877;39.750;-104.894;2023-04-15T15:35:36;1;1;
70436;PMS5003;57877;39.750;-104.894;2023-04-15T15:38:01;0;0;
70436;PMS5003;57877;39.750;-104.894;2023-04-15T15:40:27;0;0;
70436;PMS5003;57877;39.750;-104.894;2023-04-15T15:42:53;0;0;
70436;PMS5003;57877;39.750;-104.894;2023-04-15T15:45:18;1;0;
70436;PMS5003;57877;39.750;-104.894;2023-04-15T15:47:44;1;0;
70436;PMS5003;57877;39.750;-104.894;2023-04-15T15:50:11;0;0;
70436;PMS5003;57877;39.750;-104.894;2023-04-15T15:52:36;0;0;
70436;PMS5003;57877;39.750;-104.894;2023-04-15T15:55:01;0;0;
70436;PMS5003;57877;39.750;-104.894;2023-04-15T15:57:26;0;0;
70436;PMS5003;57877;39.750;-104.894;2023-04-15T15:59:52;0;0;
70436;PMS5003;57877;39.750;-104.894;2023-04-15T16:02:19;0;0;
70436;PMS5003;57877;39.750;-104.894;2023-04-15T16:04:44;0;0;
70436;PMS5003;57877;39.750;-104.894;2023-04-15T16:07:10;0;0;
70436;PMS5003;57877;39.750;-104.894;2023-04-15T16:09:36;0;0;
70436;PMS5003;57877;39.750;-104.894;2023-04-15T16:12:03;1;1;